Terminal Aerodrome Forecast
Issued by NWS

Home | Current Version | Previous Version | Text Only | Print | Product List | Glossary On
Versions: 1 2 3 4 5 6 7 8 9 10 11 12 13 14 15 16 17 18
000
FTUS43 KDLH 261731
TAFHYR
TAF
KHYR 261731Z 2618/2718 08012KT P6SM OVC022
      TEMPO 2618/2621 OVC035
     FM262100 05009KT P6SM OVC035
     FM270000 05008KT P6SM BKN060
     FM270200 06004KT P6SM SCT060
     FM271400 10012KT P6SM SCT040=

USA.gov is the U.S. government's official web portal to all federal, state and local government web resources and services.